createdAt,value
2019-01-06T00:01:34.907Z,4.40
2019-01-06T00:04:09.523Z,4.60
2019-01-06T00:06:54.817Z,4.30
2019-01-06T00:09:35.984Z,4.40
2019-01-06T00:12:04.921Z,4.40
2019-01-06T00:14:46.228Z,4.50
2019-01-06T00:17:21.199Z,5.00
2019-01-06T00:20:06.233Z,4.70
2019-01-06T00:22:38.157Z,4.12
2019-01-06T00:25:13.092Z,4.55
2019-01-06T00:27:44.984Z,4.20
2019-01-06T00:30:30.459Z,4.35
2019-01-06T00:33:02.034Z,4.30
2019-01-06T00:35:30.948Z,3.80
2019-01-06T00:38:02.573Z,4.08
2019-01-06T00:40:40.675Z,4.25
2019-01-06T00:43:09.523Z,4.70
2019-01-06T00:45:47.311Z,4.20
2019-01-06T00:48:25.281Z,4.60
2019-01-06T00:50:56.910Z,5.05
2019-01-06T00:53:34.939Z,4.45
2019-01-06T00:56:12.891Z,5.28
2019-01-06T00:58:50.515Z,5.33
2019-01-06T01:01:22.177Z,5.20
2019-01-06T01:03:51.081Z,4.58
2019-01-06T01:06:36.323Z,4.30
2019-01-06T01:09:25.151Z,5.00
2019-01-06T01:12:10.597Z,4.42
2019-01-06T01:14:42.192Z,5.08
2019-01-06T01:17:26.145Z,4.85
2019-01-06T01:19:55.076Z,5.20
2019-01-06T01:22:24.018Z,4.35
2019-01-06T01:25:09.706Z,5.35
2019-01-06T01:27:38.643Z,5.10
2019-01-06T01:30:08.438Z,5.30
2019-01-06T01:32:37.358Z,4.47
2019-01-06T01:35:09.070Z,4.70
2019-01-06T01:37:47.261Z,4.62
2019-01-06T01:40:31.297Z,4.30
2019-01-06T01:43:07.358Z,4.10
2019-01-06T01:45:48.655Z,4.60
2019-01-06T01:48:17.516Z,4.60
2019-01-06T01:50:49.200Z,4.65
2019-01-06T01:53:18.105Z,4.50
2019-01-06T01:55:47.019Z,4.50
2019-01-06T01:58:34.050Z,4.35
2019-01-06T02:01:12.167Z,4.53
2019-01-06T02:03:41.109Z,4.85
2019-01-06T02:06:10.028Z,4.50
2019-01-06T02:08:51.244Z,4.72
2019-01-06T02:11:23.146Z,4.45
2019-01-06T02:13:58.339Z,5.05
2019-01-06T02:16:27.255Z,4.55
2019-01-06T02:19:12.855Z,4.10
2019-01-06T02:21:44.496Z,4.00
2019-01-06T02:24:28.482Z,4.55
2019-01-06T02:27:02.931Z,5.08
2019-01-06T02:29:48.491Z,4.50
2019-01-06T02:32:17.438Z,4.30
2019-01-06T02:34:52.403Z,4.50
2019-01-06T02:37:30.427Z,4.67
2019-01-06T02:40:15.810Z,4.53
2019-01-06T02:42:47.694Z,4.37
2019-01-06T02:45:25.587Z,4.70
2019-01-06T02:48:11.078Z,4.58
2019-01-06T02:50:45.773Z,4.40
2019-01-06T02:53:14.652Z,4.45
2019-01-06T02:55:43.572Z,4.20
2019-01-06T02:58:18.303Z,4.20
2019-01-06T03:00:56.244Z,3.90
2019-01-06T03:03:25.187Z,5.00
2019-01-06T03:06:03.364Z,4.50
2019-01-06T03:08:47.483Z,4.60
2019-01-06T03:11:24.959Z,4.87
2019-01-06T03:13:56.571Z,4.90
2019-01-06T03:16:34.512Z,4.58
2019-01-06T03:19:18.762Z,4.42
2019-01-06T03:21:50.747Z,4.70
2019-01-06T03:24:25.383Z,4.80
2019-01-06T03:26:54.319Z,4.75
2019-01-06T03:29:39.785Z,4.10
2019-01-06T03:32:11.364Z,4.40
2019-01-06T03:34:55.278Z,4.50
2019-01-06T03:37:24.227Z,4.47
2019-01-06T03:40:05.284Z,4.78
2019-01-06T03:42:34.239Z,4.60
2019-01-06T03:45:09.041Z,4.90
2019-01-06T03:47:37.978Z,4.90
2019-01-06T03:50:24.175Z,5.30
2019-01-06T03:53:09.207Z,4.58
2019-01-06T03:55:54.494Z,4.92
2019-01-06T03:58:25.912Z,5.28
2019-01-06T04:01:03.892Z,4.55
2019-01-06T04:03:38.944Z,4.87
2019-01-06T04:06:24.208Z,4.90
2019-01-06T04:09:09.275Z,5.35
2019-01-06T04:11:54.811Z,4.87
2019-01-06T04:14:35.770Z,5.10
2019-01-06T04:17:07.096Z,5.30
2019-01-06T04:19:52.712Z,5.20
2019-01-06T04:22:33.575Z,5.83
2019-01-06T04:25:19.092Z,5.05
2019-01-06T04:28:04.203Z,5.00
2019-01-06T04:30:39.147Z,5.25
2019-01-06T04:33:17.031Z,5.25
2019-01-06T04:35:57.933Z,5.20
2019-01-06T04:38:43.471Z,5.10
2019-01-06T04:41:12.395Z,4.87
2019-01-06T04:43:53.122Z,4.67
2019-01-06T04:46:37.303Z,4.60
2019-01-06T04:49:24.267Z,4.70
2019-01-06T04:52:09.839Z,4.80
2019-01-06T04:54:38.770Z,4.60
2019-01-06T04:57:24.272Z,5.15
2019-01-06T04:59:59.042Z,4.83
2019-01-06T05:02:30.684Z,4.50
2019-01-06T05:05:05.412Z,4.40
2019-01-06T05:07:43.456Z,4.40
2019-01-06T05:10:21.011Z,4.55
2019-01-06T05:12:52.908Z,4.78
2019-01-06T05:15:38.270Z,4.87
2019-01-06T05:18:07.151Z,4.87
2019-01-06T05:20:54.257Z,6.25
2019-01-06T05:23:28.975Z,5.40
2019-01-06T05:25:57.886Z,5.55
2019-01-06T05:28:29.311Z,4.87
2019-01-06T05:31:07.526Z,5.40
2019-01-06T05:33:39.315Z,5.65
2019-01-06T05:36:17.130Z,5.65
2019-01-06T05:38:48.805Z,6.20
2019-01-06T05:41:34.139Z,5.45
2019-01-06T05:44:08.962Z,6.30
2019-01-06T05:46:37.895Z,5.70
2019-01-06T05:49:23.237Z,5.80
2019-01-06T05:52:08.707Z,6.42
2019-01-06T05:54:37.663Z,5.62
2019-01-06T05:57:15.645Z,6.65
2019-01-06T05:59:59.875Z,5.83
2019-01-06T06:02:40.898Z,6.00
2019-01-06T06:05:21.910Z,5.80
2019-01-06T06:07:50.755Z,6.75
2019-01-06T06:10:22.474Z,6.58
2019-01-06T06:12:51.415Z,5.72
2019-01-06T06:15:32.603Z,5.55
2019-01-06T06:18:17.780Z,5.78
2019-01-06T06:20:52.422Z,5.78
2019-01-06T06:23:21.346Z,6.95
2019-01-06T06:25:50.262Z,6.50
2019-01-06T06:28:37.506Z,6.05
2019-01-06T06:31:24.654Z,6.50
2019-01-06T06:34:05.442Z,5.65
2019-01-06T06:36:34.370Z,6.65
2019-01-06T06:39:06.256Z,6.30
2019-01-06T06:41:47.121Z,6.85
2019-01-06T06:44:16.059Z,6.53
2019-01-06T06:46:44.976Z,6.42
2019-01-06T06:49:13.899Z,5.58
2019-01-06T06:51:42.835Z,6.67
2019-01-06T06:54:17.650Z,6.22
2019-01-06T06:56:59.147Z,6.33
2019-01-06T06:59:44.424Z,6.80
2019-01-06T07:02:32.851Z,6.05
2019-01-06T07:05:16.974Z,5.80
2019-01-06T07:07:58.187Z,5.85
2019-01-06T07:10:27.095Z,5.78
2019-01-06T07:13:12.729Z,5.40
2019-01-06T07:15:47.514Z,6.08
2019-01-06T07:18:19.681Z,6.50
2019-01-06T07:20:51.350Z,6.50
2019-01-06T07:23:23.011Z,5.65
2019-01-06T07:25:57.854Z,5.67
2019-01-06T07:28:43.618Z,5.05
2019-01-06T07:31:30.790Z,5.30
2019-01-06T07:34:17.824Z,5.97
2019-01-06T07:37:04.995Z,5.83
2019-01-06T07:39:50.381Z,6.03
2019-01-06T07:42:35.603Z,5.08
2019-01-06T07:45:04.520Z,4.90
2019-01-06T07:47:49.787Z,5.00
2019-01-06T07:50:33.538Z,5.20
2019-01-06T07:53:07.990Z,6.70
2019-01-06T07:55:36.921Z,5.28
2019-01-06T07:58:05.846Z,5.70
2019-01-06T08:00:34.684Z,5.25
2019-01-06T08:03:15.688Z,5.62
2019-01-06T08:06:00.923Z,6.28
2019-01-06T08:08:32.640Z,6.67
2019-01-06T08:11:10.555Z,5.00
2019-01-06T08:13:51.604Z,4.20
2019-01-06T08:16:39.082Z,3.80
2019-01-06T08:19:16.656Z,4.03
2019-01-06T08:21:45.578Z,3.62
2019-01-06T08:24:30.821Z,3.58
2019-01-06T08:27:08.804Z,3.92
2019-01-06T08:29:40.442Z,4.10
2019-01-06T08:32:12.334Z,4.65
2019-01-06T08:34:41.179Z,4.55
2019-01-06T08:37:26.739Z,4.50
2019-01-06T08:39:57.340Z,4.17
2019-01-06T08:42:26.237Z,4.90
2019-01-06T08:45:07.366Z,5.00
2019-01-06T08:47:39.082Z,5.33
2019-01-06T08:50:16.883Z,4.25
2019-01-06T08:52:45.816Z,4.40
2019-01-06T08:55:20.682Z,4.70
2019-01-06T08:57:49.555Z,4.60
2019-01-06T09:00:21.378Z,5.45
2019-01-06T09:02:52.995Z,4.70
2019-01-06T09:05:24.938Z,5.40
2019-01-06T09:07:56.791Z,4.62
2019-01-06T09:10:28.429Z,4.95
2019-01-06T09:13:03.266Z,4.60
2019-01-06T09:15:32.132Z,5.30
2019-01-06T09:18:04.447Z,5.60
2019-01-06T09:20:42.483Z,5.20
2019-01-06T09:23:23.323Z,5.05
2019-01-06T09:25:52.255Z,5.37
2019-01-06T09:28:21.171Z,4.45
2019-01-06T09:31:06.788Z,4.35
2019-01-06T09:33:50.689Z,4.97
2019-01-06T09:36:36.255Z,5.30
2019-01-06T09:39:23.172Z,4.50
2019-01-06T09:42:03.665Z,4.70
2019-01-06T09:44:44.854Z,5.12
2019-01-06T09:47:13.802Z,4.90
2019-01-06T09:49:48.740Z,4.50
2019-01-06T09:52:17.683Z,4.60
2019-01-06T09:55:03.082Z,4.25
2019-01-06T09:57:34.959Z,4.45
2019-01-06T10:00:15.899Z,4.60
2019-01-06T10:02:50.591Z,3.95
2019-01-06T10:05:36.068Z,4.95
2019-01-06T10:08:10.855Z,4.58
2019-01-06T10:10:49.073Z,5.12
2019-01-06T10:13:30.091Z,5.67
2019-01-06T10:16:01.767Z,5.17
2019-01-06T10:18:46.991Z,4.80
2019-01-06T10:21:24.875Z,5.42
2019-01-06T10:23:53.818Z,4.65
2019-01-06T10:26:25.687Z,4.97
2019-01-06T10:28:57.624Z,5.10
2019-01-06T10:31:38.799Z,4.80
2019-01-06T10:34:22.689Z,4.75
2019-01-06T10:36:54.080Z,5.78
2019-01-06T10:39:29.019Z,5.10
2019-01-06T10:41:57.867Z,5.00
2019-01-06T10:44:26.775Z,4.40
2019-01-06T10:47:12.066Z,4.45
2019-01-06T10:49:57.340Z,4.80
2019-01-06T10:52:26.284Z,4.58
2019-01-06T10:55:11.794Z,5.60
2019-01-06T11:11:06.159Z,5.53
2019-01-06T11:13:51.222Z,5.30
2019-01-06T11:16:32.235Z,4.70
2019-01-06T11:19:06.901Z,6.03
2019-01-06T11:21:35.811Z,5.45
2019-01-06T11:24:04.760Z,5.75
2019-01-06T11:26:33.674Z,5.12
2019-01-06T11:29:05.749Z,4.20
2019-01-06T11:31:37.631Z,4.40
2019-01-06T11:34:23.227Z,6.92
2019-01-06T11:36:55.043Z,4.53
2019-01-06T11:39:32.855Z,7.50
2019-01-06T11:42:01.802Z,11.57
2019-01-06T11:44:39.735Z,5.60
2019-01-06T11:47:14.462Z,5.22
2019-01-06T11:49:46.406Z,3.85
2019-01-06T11:52:31.963Z,6.10
2019-01-06T11:55:16.026Z,5.03
2019-01-06T11:58:01.731Z,6.17
2019-01-06T12:00:49.055Z,5.47
2019-01-06T12:03:33.325Z,4.97
2019-01-06T12:06:18.618Z,7.33
2019-01-06T12:08:56.594Z,7.03
2019-01-06T12:11:25.506Z,8.98
2019-01-06T12:13:57.257Z,4.75
2019-01-06T12:16:32.277Z,5.75
2019-01-06T12:19:19.552Z,5.80
2019-01-06T12:22:03.531Z,9.05
2019-01-06T12:24:32.459Z,5.60
2019-01-06T12:27:19.416Z,5.25
2019-01-06T12:30:00.612Z,5.30
2019-01-06T12:32:35.625Z,5.20
2019-01-06T12:35:20.859Z,6.50
2019-01-06T12:37:58.752Z,6.33
2019-01-06T12:40:33.458Z,7.53
2019-01-06T12:43:18.998Z,6.05
2019-01-06T12:45:59.786Z,5.67
2019-01-06T12:48:45.263Z,6.03
2019-01-06T12:51:30.322Z,6.70
2019-01-06T12:53:59.256Z,6.12
2019-01-06T12:56:34.167Z,5.97
2019-01-06T12:59:05.905Z,6.55
2019-01-06T13:01:50.126Z,5.62
2019-01-06T13:04:21.862Z,5.30
2019-01-06T13:06:56.895Z,7.83
2019-01-06T13:09:42.173Z,6.83
2019-01-06T13:12:27.382Z,7.42
2019-01-06T13:14:56.295Z,5.25
2019-01-06T13:17:34.560Z,8.23
2019-01-06T13:20:06.287Z,7.30
2019-01-06T13:22:35.215Z,10.58
2019-01-06T13:25:20.782Z,7.78
2019-01-06T13:27:49.699Z,6.08
2019-01-06T13:30:33.671Z,7.28
2019-01-06T13:33:14.912Z,5.50
2019-01-06T13:35:43.850Z,6.12
2019-01-06T13:38:24.883Z,6.55
2019-01-06T13:41:05.769Z,5.87
2019-01-06T13:43:50.060Z,6.00
2019-01-06T13:46:19.002Z,5.60
2019-01-06T13:48:50.908Z,5.85
2019-01-06T13:51:19.822Z,5.08
2019-01-06T13:53:48.672Z,7.10
2019-01-06T13:56:17.616Z,5.70
2019-01-06T13:59:03.036Z,5.58
2019-01-06T14:01:37.719Z,5.10
2019-01-06T14:04:25.051Z,8.98
2019-01-06T14:07:06.343Z,6.45
2019-01-06T14:09:38.295Z,6.33
2019-01-06T14:12:19.561Z,5.05
2019-01-06T14:14:48.492Z,5.30
2019-01-06T14:17:17.412Z,5.15
2019-01-06T14:20:04.430Z,5.40
2019-01-06T14:22:33.338Z,5.33
2019-01-06T14:25:02.287Z,5.25
2019-01-06T14:27:34.211Z,5.15
2019-01-06T14:30:12.504Z,5.78
2019-01-06T14:32:58.226Z,5.12
2019-01-06T14:35:36.080Z,5.90
2019-01-06T14:38:22.802Z,4.97
2019-01-06T14:41:04.017Z,5.42
2019-01-06T14:43:32.925Z,5.60
2019-01-06T14:46:04.811Z,5.40
2019-01-06T14:48:52.317Z,5.50
2019-01-06T14:51:30.413Z,6.80
2019-01-06T14:54:15.660Z,6.33
2019-01-06T14:56:59.663Z,6.00
2019-01-06T14:59:28.534Z,4.90
2019-01-06T15:02:03.450Z,5.60
2019-01-06T15:04:35.352Z,4.85
2019-01-06T15:07:10.294Z,5.35
2019-01-06T15:09:55.525Z,5.15
2019-01-06T15:12:30.140Z,4.72
2019-01-06T15:14:59.075Z,5.30
2019-01-06T15:17:34.181Z,6.25
2019-01-06T15:20:05.867Z,6.30
2019-01-06T15:22:34.779Z,6.00
2019-01-06T15:25:03.718Z,6.05
2019-01-06T15:27:51.087Z,6.60
2019-01-06T15:30:36.451Z,7.37
2019-01-06T15:33:23.608Z,6.78
2019-01-06T15:36:08.846Z,6.20
2019-01-06T15:38:37.771Z,6.58
2019-01-06T15:41:15.652Z,7.50
2019-01-06T15:43:46.351Z,7.72
2019-01-06T15:46:15.266Z,7.60
2019-01-06T15:48:44.207Z,8.03
2019-01-06T15:51:29.503Z,8.25
2019-01-06T15:53:58.456Z,7.50
2019-01-06T15:56:42.754Z,7.65
2019-01-06T15:59:28.240Z,8.00
2019-01-06T16:01:57.083Z,7.42
2019-01-06T16:04:42.322Z,6.90
2019-01-06T16:07:17.156Z,6.90
2019-01-06T16:09:48.884Z,7.08
2019-01-06T16:12:20.616Z,7.37
2019-01-06T16:15:06.182Z,8.20
2019-01-06T16:17:43.850Z,9.05
2019-01-06T16:20:15.957Z,8.75
2019-01-06T16:23:01.275Z,9.68
2019-01-06T16:25:39.222Z,9.55
2019-01-06T16:28:08.162Z,9.65
2019-01-06T16:30:53.295Z,11.88
2019-01-06T16:33:27.779Z,8.20
2019-01-06T16:35:56.703Z,9.60
2019-01-06T16:38:40.786Z,9.20
2019-01-06T16:41:12.239Z,8.53
2019-01-06T16:43:44.302Z,9.70
2019-01-06T16:46:13.228Z,9.60
2019-01-06T16:48:54.341Z,10.50
2019-01-06T16:51:38.628Z,10.38
2019-01-06T16:54:07.579Z,9.83
2019-01-06T16:56:53.117Z,8.70
2019-01-06T16:59:24.811Z,8.90
2019-01-06T17:02:10.400Z,9.80
2019-01-06T17:04:55.939Z,8.60
2019-01-06T17:07:41.211Z,9.25
2019-01-06T17:10:22.087Z,8.73
2019-01-06T17:12:51.035Z,7.55
2019-01-06T17:15:19.969Z,8.25
2019-01-06T17:18:03.922Z,9.58
2019-01-06T17:20:41.760Z,8.38
2019-01-06T17:23:26.995Z,8.95
2019-01-06T17:26:01.721Z,9.03
2019-01-06T17:28:30.660Z,9.80
2019-01-06T17:31:05.743Z,8.08
2019-01-06T17:33:40.436Z,8.60
2019-01-06T17:36:15.349Z,9.75
2019-01-06T17:38:56.268Z,9.85
2019-01-06T17:41:41.815Z,9.10
2019-01-06T17:44:10.736Z,9.48
2019-01-06T17:46:45.366Z,9.75
2019-01-06T17:49:14.294Z,25.17
2019-01-06T17:51:43.216Z,9.78
2019-01-06T17:54:27.300Z,9.65
2019-01-06T17:57:12.782Z,9.60
2019-01-06T17:59:41.666Z,10.05
2019-01-06T18:02:10.587Z,10.35
2019-01-06T18:04:55.969Z,10.10
2019-01-06T18:07:37.071Z,9.60
2019-01-06T18:10:21.756Z,10.18
2019-01-06T18:13:02.890Z,11.93
2019-01-06T18:15:40.952Z,10.75
2019-01-06T18:18:18.996Z,11.40
2019-01-06T18:20:53.863Z,11.85
2019-01-06T18:23:40.922Z,11.38
2019-01-06T18:26:28.119Z,12.25
2019-01-06T18:28:57.074Z,11.30
2019-01-06T18:31:42.547Z,12.82
2019-01-06T18:34:17.171Z,12.90
2019-01-06T18:36:49.109Z,11.97
2019-01-06T18:39:21.280Z,11.75
2019-01-06T18:42:02.543Z,10.03
2019-01-06T18:44:43.426Z,10.80
2019-01-06T18:47:14.891Z,11.20
2019-01-06T18:49:55.763Z,11.70
2019-01-06T18:52:30.430Z,10.00
2019-01-06T18:55:17.474Z,11.10
2019-01-06T18:57:58.623Z,12.10
2019-01-06T19:00:30.045Z,11.75
2019-01-06T19:03:17.530Z,11.50
2019-01-06T19:05:49.164Z,11.08
2019-01-06T19:08:23.889Z,12.45
2019-01-06T19:10:55.807Z,13.03
2019-01-06T19:13:24.719Z,14.93
2019-01-06T19:15:56.586Z,13.85
2019-01-06T19:18:31.502Z,14.25
2019-01-06T19:21:06.235Z,13.53
2019-01-06T19:23:37.983Z,11.93
2019-01-06T19:26:21.871Z,15.20
2019-01-06T19:29:07.410Z,14.55
2019-01-06T19:31:36.367Z,14.07
2019-01-06T19:34:14.223Z,11.55
2019-01-06T19:36:55.456Z,12.40
2019-01-06T19:39:42.705Z,12.07
2019-01-06T19:42:28.301Z,11.93
2019-01-06T19:45:06.090Z,11.28
2019-01-06T19:47:35.039Z,11.48
2019-01-06T19:50:06.623Z,10.98
2019-01-06T19:52:50.729Z,10.95
2019-01-06T19:55:31.926Z,11.55
2019-01-06T19:58:17.419Z,11.25
2019-01-06T20:01:01.362Z,10.20
2019-01-06T20:03:46.907Z,10.72
2019-01-06T20:06:24.921Z,10.63
2019-01-06T20:09:02.727Z,9.28
2019-01-06T20:11:34.632Z,10.18
2019-01-06T20:14:06.438Z,10.30
2019-01-06T20:16:40.930Z,10.00
2019-01-06T20:19:19.087Z,9.58
2019-01-06T20:22:06.116Z,9.50
2019-01-06T20:24:51.084Z,9.05
2019-01-06T20:27:36.674Z,9.65
2019-01-06T20:30:05.626Z,10.25
2019-01-06T20:32:49.480Z,10.00
2019-01-06T20:35:18.427Z,9.78
2019-01-06T20:37:50.512Z,8.90
2019-01-06T20:40:28.669Z,10.32
2019-01-06T20:42:57.611Z,9.60
2019-01-06T20:45:31.984Z,8.63
2019-01-06T20:48:13.176Z,8.90
2019-01-06T20:50:58.664Z,8.55
2019-01-06T20:53:39.405Z,8.10
2019-01-06T20:56:10.759Z,8.38
2019-01-06T20:58:39.698Z,8.48
2019-01-06T21:01:24.840Z,7.45
2019-01-06T21:04:10.244Z,8.43
2019-01-06T21:06:41.934Z,7.20
2019-01-06T21:09:16.805Z,6.58
2019-01-06T21:12:02.388Z,7.28
2019-01-06T21:14:39.910Z,9.15
2019-01-06T21:17:20.535Z,7.60
2019-01-06T21:20:06.132Z,7.90
2019-01-06T21:22:35.045Z,8.35
2019-01-06T21:25:03.980Z,8.35
2019-01-06T21:27:47.879Z,8.53
2019-01-06T21:30:31.667Z,8.13
2019-01-06T21:33:09.655Z,7.80
2019-01-06T21:35:41.455Z,7.80
2019-01-06T21:38:10.295Z,7.95
2019-01-06T21:40:55.654Z,8.58
2019-01-06T21:43:30.531Z,7.42
2019-01-06T21:46:08.698Z,7.42
2019-01-06T21:48:40.650Z,7.65
2019-01-06T21:51:24.867Z,7.80
2019-01-06T21:54:03.779Z,7.62
2019-01-06T21:56:39.050Z,8.03
2019-01-06T21:59:17.010Z,8.75
2019-01-06T22:01:51.766Z,8.88
2019-01-06T22:04:20.680Z,7.65
2019-01-06T22:06:58.672Z,8.23
2019-01-06T22:09:30.647Z,8.85
2019-01-06T22:12:05.826Z,8.85
2019-01-06T22:14:37.175Z,8.70
2019-01-06T22:17:21.334Z,8.85
2019-01-06T22:19:53.406Z,8.13
2019-01-06T22:22:38.952Z,8.90
2019-01-06T22:25:24.533Z,10.48
2019-01-06T22:28:09.927Z,8.65
2019-01-06T22:30:55.198Z,9.20
2019-01-06T22:33:40.887Z,9.10
2019-01-06T22:36:09.746Z,9.15
2019-01-06T22:38:50.440Z,9.38
2019-01-06T22:41:34.063Z,9.60
2019-01-06T22:44:21.227Z,9.38
2019-01-06T22:47:08.182Z,9.18
2019-01-06T22:49:45.889Z,9.03
2019-01-06T22:52:14.800Z,9.48
2019-01-06T22:54:43.738Z,9.30
2019-01-06T22:57:12.619Z,8.23
2019-01-06T22:59:58.406Z,9.10
2019-01-06T23:02:27.337Z,10.23
2019-01-06T23:04:59.040Z,8.58
2019-01-06T23:07:44.652Z,8.28
2019-01-06T23:10:29.934Z,8.68
2019-01-06T23:13:04.984Z,8.43
2019-01-06T23:15:46.044Z,8.65
2019-01-06T23:18:31.403Z,8.68
2019-01-06T23:21:00.345Z,8.80
2019-01-06T23:23:38.095Z,9.28
2019-01-06T23:26:09.893Z,8.28
2019-01-06T23:28:38.803Z,8.38
2019-01-06T23:31:07.718Z,8.70
2019-01-06T23:33:45.206Z,8.73
2019-01-06T23:36:14.063Z,8.70
2019-01-06T23:38:54.912Z,8.65
2019-01-06T23:41:23.844Z,7.60
2019-01-06T23:44:08.906Z,8.40
2019-01-06T23:46:37.823Z,9.13
2019-01-06T23:49:24.830Z,8.40
2019-01-06T23:51:56.666Z,7.58
2019-01-06T23:54:42.103Z,8.03
2019-01-06T23:57:17.263Z,8.20
2019-01-06T23:59:52.299Z,8.30
